createdAt,value
2022-09-06T00:02:20.607Z,99.90
2022-09-06T00:04:51.643Z,99.90
2022-09-06T00:07:21.914Z,99.90
2022-09-06T00:09:52.989Z,99.90
2022-09-06T00:12:22.833Z,99.90
2022-09-06T00:14:52.141Z,99.90
2022-09-06T00:17:22.426Z,99.90
2022-09-06T00:19:53.837Z,99.90
2022-09-06T00:22:22.523Z,99.90
2022-09-06T00:24:53.507Z,99.90
2022-09-06T00:27:24.649Z,99.90
2022-09-06T00:29:56.093Z,99.90
2022-09-06T00:32:25.862Z,99.90
2022-09-06T00:34:53.377Z,99.90
2022-09-06T00:37:24.353Z,99.90
2022-09-06T00:39:53.923Z,99.90
2022-09-06T00:42:23.698Z,99.90
2022-09-06T00:44:54.173Z,99.90
2022-09-06T00:47:22.972Z,99.90
2022-09-06T00:49:58.399Z,99.90
2022-09-06T00:55:13.492Z,99.90
2022-09-06T00:57:43.895Z,99.90
2022-09-06T01:00:13.716Z,99.90
2022-09-06T01:02:50.912Z,99.90
2022-09-06T01:05:21.386Z,99.90
2022-09-06T01:08:10.840Z,99.90
2022-09-06T01:11:00.087Z,99.90
2022-09-06T01:14:06.314Z,99.90
2022-09-06T01:16:52.071Z,99.90
2022-09-06T01:19:53.049Z,99.90
2022-09-06T01:23:00.717Z,99.90
2022-09-06T01:25:53.861Z,99.90
2022-09-06T01:28:58.107Z,99.90
2022-09-06T01:31:48.419Z,99.90
2022-09-06T01:34:32.181Z,99.90
2022-09-06T01:37:18.696Z,99.90
2022-09-06T01:39:49.585Z,99.90
2022-09-06T01:42:30.216Z,99.90
2022-09-06T01:45:03.824Z,99.90
2022-09-06T01:47:54.186Z,99.90
2022-09-06T01:50:42.467Z,99.90
2022-09-06T01:53:30.669Z,99.90
2022-09-06T01:56:37.437Z,99.90
2022-09-06T01:59:17.337Z,99.90
2022-09-06T02:02:01.742Z,99.90
2022-09-06T02:05:01.621Z,99.90
2022-09-06T02:07:36.635Z,99.90
2022-09-06T02:10:53.925Z,99.90
2022-09-06T02:13:27.359Z,99.90
2022-09-06T02:16:16.278Z,99.90
2022-09-06T02:19:05.745Z,99.90
2022-09-06T02:21:39.941Z,99.90
2022-09-06T02:24:23.137Z,99.90
2022-09-06T02:26:54.544Z,99.90
2022-09-06T02:29:27.283Z,99.90
2022-09-06T02:32:12.873Z,99.90
2022-09-06T02:34:45.245Z,99.90
2022-09-06T02:37:16.545Z,99.90
2022-09-06T02:39:45.610Z,99.90
2022-09-06T02:42:20.802Z,99.90
2022-09-06T02:44:51.864Z,99.90
2022-09-06T02:47:20.470Z,99.90
2022-09-06T02:49:50.522Z,99.90
2022-09-06T02:52:19.584Z,99.90
2022-09-06T02:54:52.281Z,99.90
2022-09-06T02:57:22.318Z,99.90
2022-09-06T02:59:50.496Z,99.90
2022-09-06T03:02:18.396Z,99.90
2022-09-06T03:04:49.969Z,99.90
2022-09-06T03:07:22.693Z,99.90
2022-09-06T03:09:50.526Z,99.90
2022-09-06T03:12:20.780Z,99.90
2022-09-06T03:14:54.857Z,99.90
2022-09-06T03:17:25.496Z,99.90
2022-09-06T03:19:54.918Z,99.90
2022-09-06T03:22:23.632Z,99.90
2022-09-06T03:24:53.769Z,99.90
2022-09-06T03:27:26.229Z,99.90
2022-09-06T03:29:59.508Z,99.90
2022-09-06T03:32:29.714Z,99.90
2022-09-06T03:35:03.656Z,99.90
2022-09-06T03:37:31.130Z,99.90
2022-09-06T03:40:07.485Z,99.90
2022-09-06T03:42:37.965Z,99.90
2022-09-06T03:45:09.615Z,99.90
2022-09-06T03:47:37.770Z,99.90
2022-09-06T03:50:09.044Z,99.90
2022-09-06T03:52:38.694Z,99.90
2022-09-06T03:55:08.501Z,99.90
2022-09-06T03:57:39.531Z,99.90
2022-09-06T04:00:12.550Z,99.90
2022-09-06T04:02:43.066Z,99.90
2022-09-06T04:05:16.548Z,99.90
2022-09-06T04:07:47.322Z,99.90
2022-09-06T04:10:17.191Z,99.90
2022-09-06T04:12:45.613Z,99.90
2022-09-06T04:15:17.136Z,99.90
2022-09-06T04:17:46.366Z,99.90
2022-09-06T04:20:15.748Z,99.90
2022-09-06T04:22:45.334Z,99.90
2022-09-06T04:25:18.616Z,99.90
2022-09-06T04:27:46.637Z,99.90
2022-09-06T04:30:19.802Z,99.90
2022-09-06T04:32:50.994Z,99.90
2022-09-06T04:35:21.065Z,99.90
2022-09-06T04:37:50.612Z,99.90
2022-09-06T04:40:20.965Z,99.90
2022-09-06T04:42:52.241Z,99.90
2022-09-06T04:45:23.972Z,99.90
2022-09-06T04:47:51.765Z,99.90
2022-09-06T04:50:22.717Z,99.90
2022-09-06T04:52:51.727Z,99.90
2022-09-06T04:55:24.123Z,99.90
2022-09-06T04:57:54.301Z,99.90
2022-09-06T05:00:22.675Z,99.90
2022-09-06T05:02:53.217Z,99.90
2022-09-06T05:05:23.251Z,99.90
2022-09-06T05:08:00.101Z,99.90
2022-09-06T05:10:28.664Z,99.90
2022-09-06T05:12:58.013Z,99.90
2022-09-06T05:15:29.524Z,99.90
2022-09-06T05:18:08.887Z,99.90
2022-09-06T05:20:37.946Z,99.90
2022-09-06T05:23:07.737Z,99.90
2022-09-06T05:25:39.798Z,99.90
2022-09-06T05:28:08.996Z,99.90
2022-09-06T05:30:38.155Z,99.90
2022-09-06T05:33:08.872Z,99.90
2022-09-06T05:35:38.189Z,99.90
2022-09-06T05:38:09.321Z,99.90
2022-09-06T05:40:38.747Z,99.90
2022-09-06T05:43:08.547Z,99.90
2022-09-06T05:45:42.223Z,99.90
2022-09-06T05:48:09.676Z,99.90
2022-09-06T05:50:37.738Z,99.90
2022-09-06T05:53:11.322Z,99.90
2022-09-06T05:55:42.736Z,99.90
2022-09-06T05:58:14.050Z,99.90
2022-09-06T06:00:44.280Z,99.90
2022-09-06T06:03:14.030Z,99.90
2022-09-06T06:05:49.786Z,99.90
2022-09-06T06:08:21.115Z,99.90
2022-09-06T06:10:49.765Z,99.90
2022-09-06T06:13:19.202Z,99.90
2022-09-06T06:15:47.013Z,99.90
2022-09-06T06:18:20.067Z,99.90
2022-09-06T06:20:51.742Z,99.90
2022-09-06T06:23:25.207Z,99.90
2022-09-06T06:25:55.075Z,99.90
2022-09-06T06:28:28.220Z,99.90
2022-09-06T06:30:59.118Z,99.90
2022-09-06T06:33:29.220Z,99.90
2022-09-06T06:36:30.057Z,99.90
2022-09-06T06:39:03.119Z,99.90
2022-09-06T06:41:35.147Z,99.90
2022-09-06T06:44:06.782Z,99.90
2022-09-06T06:46:44.012Z,99.90
2022-09-06T06:49:13.334Z,99.90
2022-09-06T06:51:44.349Z,99.90
2022-09-06T06:54:13.894Z,99.90
2022-09-06T06:56:45.822Z,99.90
2022-09-06T06:59:16.542Z,99.90
2022-09-06T07:01:50.386Z,99.90
2022-09-06T07:04:19.064Z,99.90
2022-09-06T07:12:37.286Z,99.90
2022-09-06T07:15:15.031Z,99.90
2022-09-06T07:17:47.928Z,99.90
2022-09-06T07:20:19.010Z,99.90
2022-09-06T07:22:49.136Z,99.90
2022-09-06T07:25:21.429Z,99.90
2022-09-06T07:28:08.452Z,99.90
2022-09-06T07:30:37.955Z,99.90
2022-09-06T07:33:11.276Z,99.90
2022-09-06T07:35:41.938Z,99.90
2022-09-06T07:38:10.844Z,99.90
2022-09-06T07:40:41.908Z,99.90
2022-09-06T07:43:10.503Z,99.90
2022-09-06T07:45:37.932Z,99.90
2022-09-06T07:48:08.393Z,99.90
2022-09-06T07:50:51.887Z,99.90
2022-09-06T07:53:30.550Z,99.90
2022-09-06T07:56:01.038Z,99.90
2022-09-06T07:58:31.492Z,99.90
2022-09-06T08:01:36.525Z,99.90
2022-09-06T08:04:17.118Z,99.90
2022-09-06T08:09:42.988Z,99.90
2022-09-06T08:12:10.533Z,99.90
2022-09-06T08:14:38.151Z,99.90
2022-09-06T08:17:09.304Z,99.90
2022-09-06T08:19:39.361Z,99.90
2022-09-06T08:22:09.031Z,99.90
2022-09-06T08:24:41.665Z,99.90
2022-09-06T08:27:11.533Z,99.90
2022-09-06T08:29:40.182Z,99.90
2022-09-06T08:32:07.903Z,99.90
2022-09-06T08:34:44.348Z,99.90
2022-09-06T08:37:12.428Z,99.90
2022-09-06T08:39:40.501Z,99.90
2022-09-06T08:42:12.971Z,99.90
2022-09-06T08:44:57.822Z,99.90
2022-09-06T08:47:30.902Z,99.90
2022-09-06T08:50:08.559Z,99.90
2022-09-06T08:53:16.762Z,99.90
2022-09-06T08:56:13.294Z,99.90
2022-09-06T08:59:09.287Z,99.90
2022-09-06T09:02:16.061Z,99.90
2022-09-06T09:05:01.477Z,99.90
2022-09-06T09:07:51.835Z,99.90
2022-09-06T09:10:27.979Z,99.90
2022-09-06T09:13:02.941Z,99.90
2022-09-06T09:15:40.437Z,99.90
2022-09-06T09:18:11.311Z,99.90
2022-09-06T09:20:42.104Z,99.90
2022-09-06T09:23:13.964Z,99.90
2022-09-06T09:25:45.559Z,99.90
2022-09-06T09:28:21.795Z,99.90
2022-09-06T09:33:37.313Z,99.90
2022-09-06T09:36:14.063Z,99.90
2022-09-06T09:38:52.515Z,99.90
2022-09-06T09:41:40.436Z,99.90
2022-09-06T09:44:19.283Z,99.90
2022-09-06T09:46:50.050Z,99.90
2022-09-06T09:49:26.225Z,99.90
2022-09-06T09:52:10.581Z,99.90
2022-09-06T09:54:45.086Z,99.90
2022-09-06T09:57:19.750Z,99.90
2022-09-06T10:00:00.315Z,99.90
2022-09-06T10:02:30.423Z,99.90
2022-09-06T10:05:26.964Z,99.90
2022-09-06T10:07:57.366Z,99.90
2022-09-06T10:10:29.357Z,99.90
2022-09-06T10:13:32.719Z,99.90
2022-09-06T10:16:06.246Z,99.90
2022-09-06T10:18:37.491Z,99.90
2022-09-06T10:21:11.929Z,99.90
2022-09-06T10:24:29.645Z,99.90
2022-09-06T10:27:03.464Z,99.90
2022-09-06T10:30:06.888Z,99.90
2022-09-06T10:33:21.203Z,99.90
2022-09-06T10:35:51.533Z,99.90
2022-09-06T10:38:30.572Z,99.90
2022-09-06T10:41:37.430Z,99.90
2022-09-06T10:44:33.990Z,99.90
2022-09-06T10:47:35.040Z,99.90
2022-09-06T10:50:08.131Z,99.90
2022-09-06T10:52:45.522Z,99.90
2022-09-06T10:55:19.006Z,99.90
2022-09-06T11:00:53.319Z,99.90
2022-09-06T11:04:00.366Z,99.90
2022-09-06T11:06:49.877Z,99.90
2022-09-06T11:09:38.394Z,99.90
2022-09-06T11:12:42.157Z,99.90
2022-09-06T11:15:17.148Z,99.90
2022-09-06T11:17:52.461Z,99.90
2022-09-06T11:20:37.660Z,99.90
2022-09-06T11:23:45.263Z,99.90
2022-09-06T11:26:41.107Z,99.90
2022-09-06T11:29:33.425Z,99.90
2022-09-06T11:32:17.707Z,98.60
2022-09-06T11:35:04.278Z,98.10
2022-09-06T11:37:44.944Z,98.10
2022-09-06T11:40:38.584Z,97.90
2022-09-06T11:43:13.246Z,98.00
2022-09-06T11:46:13.484Z,97.60
2022-09-06T11:49:09.882Z,97.80
2022-09-06T11:51:44.458Z,98.00
2022-09-06T11:54:55.929Z,97.40
2022-09-06T11:57:27.687Z,97.20
2022-09-06T12:00:15.258Z,96.10
2022-09-06T12:02:48.121Z,96.10
2022-09-06T12:05:27.720Z,96.10
2022-09-06T12:08:19.495Z,96.00
2022-09-06T12:11:04.238Z,95.80
2022-09-06T12:13:56.564Z,96.00
2022-09-06T12:16:49.356Z,96.00
2022-09-06T12:19:45.774Z,95.70
2022-09-06T12:23:00.788Z,95.50
2022-09-06T12:25:39.540Z,95.30
2022-09-06T12:28:23.448Z,94.60
2022-09-06T12:30:53.404Z,94.70
2022-09-06T12:33:39.277Z,94.30
2022-09-06T12:36:33.844Z,93.90
2022-09-06T12:39:16.845Z,94.00
2022-09-06T12:41:50.540Z,93.70
2022-09-06T12:44:24.603Z,93.10
2022-09-06T12:46:55.171Z,92.70
2022-09-06T12:49:27.506Z,92.10
2022-09-06T12:52:15.450Z,91.40
2022-09-06T12:54:49.817Z,91.40
2022-09-06T12:57:27.025Z,90.60
2022-09-06T12:59:59.299Z,88.10
2022-09-06T13:02:46.423Z,83.20
2022-09-06T13:05:17.176Z,77.60
2022-09-06T13:07:50.216Z,73.00
2022-09-06T13:10:46.943Z,72.40
2022-09-06T13:13:29.934Z,74.90
2022-09-06T13:16:00.923Z,71.60
2022-09-06T13:18:40.172Z,64.80
2022-09-06T13:21:16.577Z,58.60
2022-09-06T13:24:10.682Z,54.10
2022-09-06T13:26:42.498Z,50.80
2022-09-06T13:29:34.142Z,47.40
2022-09-06T13:32:08.642Z,47.00
2022-09-06T13:34:36.754Z,45.10
2022-09-06T13:37:09.624Z,44.20
2022-09-06T13:39:46.728Z,43.10
2022-09-06T13:42:40.364Z,41.20
2022-09-06T13:45:33.802Z,40.40
2022-09-06T13:48:26.207Z,39.90
2022-09-06T13:53:37.704Z,39.00
2022-09-06T13:56:08.951Z,37.60
2022-09-06T13:58:40.091Z,37.40
2022-09-06T14:01:12.748Z,37.00
2022-09-06T14:03:42.477Z,35.10
2022-09-06T14:06:15.076Z,35.60
2022-09-06T14:11:37.524Z,35.30
2022-09-06T14:14:10.133Z,36.30
2022-09-06T14:16:43.105Z,36.70
2022-09-06T14:19:16.274Z,37.30
2022-09-06T14:21:46.213Z,37.80
2022-09-06T14:24:17.295Z,38.80
2022-09-06T14:26:47.522Z,39.50
2022-09-06T14:29:16.411Z,40.00
2022-09-06T14:31:47.811Z,40.60
2022-09-06T14:34:19.445Z,40.30
2022-09-06T14:36:50.919Z,39.80
2022-09-06T14:39:24.186Z,40.20
2022-09-06T14:41:54.489Z,40.00
2022-09-06T14:44:22.852Z,39.80
2022-09-06T14:46:55.483Z,40.10
2022-09-06T14:49:27.724Z,39.20
2022-09-06T14:51:59.392Z,39.60
2022-09-06T14:54:29.585Z,40.40
2022-09-06T14:57:00.698Z,39.00
2022-09-06T14:59:30.997Z,38.90
2022-09-06T15:02:00.756Z,38.80
2022-09-06T15:04:28.976Z,38.70
2022-09-06T15:06:56.260Z,38.90
2022-09-06T15:09:29.178Z,38.90
2022-09-06T15:11:59.631Z,39.20
2022-09-06T15:14:30.540Z,40.20
2022-09-06T15:17:02.942Z,39.50
2022-09-06T15:19:44.018Z,39.10
2022-09-06T15:22:14.144Z,39.80
2022-09-06T15:24:45.215Z,39.40
2022-09-06T15:27:18.027Z,39.40
2022-09-06T15:29:49.256Z,40.70
2022-09-06T15:32:21.838Z,42.00
2022-09-06T15:34:50.078Z,42.60
2022-09-06T15:37:18.661Z,45.00
2022-09-06T15:39:50.791Z,46.40
2022-09-06T15:42:21.544Z,46.90
2022-09-06T15:44:57.009Z,48.50
2022-09-06T15:47:24.399Z,49.80
2022-09-06T15:49:58.149Z,50.20
2022-09-06T15:52:28.757Z,51.70
2022-09-06T15:55:16.859Z,50.70
2022-09-06T15:57:51.028Z,52.70
2022-09-06T16:00:24.578Z,52.30
2022-09-06T16:02:57.061Z,51.80
2022-09-06T16:08:16.533Z,50.90
2022-09-06T16:10:49.117Z,51.40
2022-09-06T16:13:19.248Z,50.80
2022-09-06T16:16:15.233Z,50.80
2022-09-06T16:18:49.889Z,50.60
2022-09-06T16:21:26.057Z,50.20
2022-09-06T16:24:02.802Z,50.90
2022-09-06T16:26:37.915Z,51.30
2022-09-06T16:29:09.616Z,51.50
2022-09-06T16:31:40.767Z,52.10
2022-09-06T16:34:14.591Z,52.40
2022-09-06T16:36:44.402Z,53.90
2022-09-06T16:39:15.148Z,53.40
2022-09-06T16:41:46.646Z,53.80
2022-09-06T16:44:20.759Z,54.40
2022-09-06T16:46:53.136Z,54.60
2022-09-06T16:49:23.174Z,55.00
2022-09-06T16:51:55.665Z,55.40
2022-09-06T16:54:27.442Z,55.90
2022-09-06T16:57:04.376Z,56.70
2022-09-06T16:59:35.960Z,57.30
2022-09-06T17:02:09.352Z,57.30
2022-09-06T17:04:44.577Z,57.00
2022-09-06T17:07:18.348Z,57.90
2022-09-06T17:09:51.162Z,58.70
2022-09-06T17:12:20.652Z,59.30
2022-09-06T17:14:52.306Z,60.10
2022-09-06T17:17:21.813Z,60.20
2022-09-06T17:19:51.941Z,60.40
2022-09-06T17:22:22.048Z,61.90
2022-09-06T17:24:53.512Z,62.80
2022-09-06T17:27:21.618Z,63.60
2022-09-06T17:29:51.741Z,64.90
2022-09-06T17:32:22.968Z,64.90
2022-09-06T17:34:52.684Z,64.90
2022-09-06T17:37:23.211Z,66.60
2022-09-06T17:39:55.265Z,68.00
2022-09-06T17:42:26.573Z,70.00
2022-09-06T17:44:59.443Z,70.70
2022-09-06T17:47:33.920Z,70.80
2022-09-06T17:50:03.617Z,71.70
2022-09-06T17:52:40.251Z,73.70
2022-09-06T17:55:10.361Z,74.40
2022-09-06T17:57:42.726Z,75.00
2022-09-06T18:00:16.679Z,74.50
2022-09-06T18:02:45.618Z,75.10
2022-09-06T18:05:20.173Z,75.30
2022-09-06T18:07:50.233Z,75.50
2022-09-06T18:10:19.278Z,75.70
2022-09-06T18:12:48.896Z,76.30
2022-09-06T18:15:20.193Z,77.70
2022-09-06T18:17:52.384Z,78.90
2022-09-06T18:20:21.886Z,78.80
2022-09-06T18:22:52.544Z,75.40
2022-09-06T18:25:24.481Z,78.10
2022-09-06T18:27:54.028Z,77.90
2022-09-06T18:30:23.275Z,76.80
2022-09-06T18:32:51.102Z,77.50
2022-09-06T18:35:24.081Z,77.40
2022-09-06T18:37:52.660Z,79.90
2022-09-06T18:40:20.646Z,77.70
2022-09-06T18:42:52.731Z,77.60
2022-09-06T18:45:23.289Z,80.00
2022-09-06T18:47:53.871Z,80.10
2022-09-06T18:50:25.045Z,84.90
2022-09-06T18:52:54.963Z,86.80
2022-09-06T18:55:28.254Z,88.20
2022-09-06T18:57:59.751Z,86.10
2022-09-06T19:00:33.920Z,85.10
2022-09-06T19:03:07.793Z,83.60
2022-09-06T19:05:40.765Z,81.30
2022-09-06T19:08:12.716Z,85.40
2022-09-06T19:10:42.124Z,85.60
2022-09-06T19:13:15.255Z,85.50
2022-09-06T19:15:47.561Z,85.90
2022-09-06T19:18:18.339Z,86.70
2022-09-06T19:21:04.806Z,86.40
2022-09-06T19:23:39.558Z,87.20
2022-09-06T19:26:29.028Z,85.90
2022-09-06T19:29:02.853Z,86.50
2022-09-06T19:31:35.905Z,86.60
2022-09-06T19:34:12.406Z,87.40
2022-09-06T19:36:47.602Z,87.40
2022-09-06T19:39:19.350Z,88.40
2022-09-06T19:41:51.393Z,87.90
2022-09-06T19:44:22.244Z,89.20
2022-09-06T19:46:54.554Z,88.60
2022-09-06T19:49:25.191Z,88.60
2022-09-06T19:51:57.706Z,87.70
2022-09-06T19:54:31.153Z,89.60
2022-09-06T19:57:03.242Z,90.10
2022-09-06T19:59:37.163Z,90.70
2022-09-06T20:02:07.507Z,91.00
2022-09-06T20:04:38.288Z,91.10
2022-09-06T20:07:10.080Z,91.40
2022-09-06T20:09:53.209Z,91.50
2022-09-06T20:12:28.187Z,91.60
2022-09-06T20:15:02.481Z,91.80
2022-09-06T20:17:35.429Z,92.20
2022-09-06T20:20:06.885Z,92.30
2022-09-06T20:22:38.164Z,92.50
2022-09-06T20:25:08.966Z,92.70
2022-09-06T20:27:48.160Z,92.80
2022-09-06T20:30:20.234Z,93.00
2022-09-06T20:32:50.104Z,93.20
2022-09-06T20:35:19.373Z,93.40
2022-09-06T20:37:51.069Z,93.60
2022-09-06T20:40:21.329Z,94.00
2022-09-06T20:42:52.206Z,94.20
2022-09-06T20:45:27.801Z,94.50
2022-09-06T20:47:58.005Z,94.70
2022-09-06T20:50:29.881Z,95.00
2022-09-06T20:53:01.412Z,95.10
2022-09-06T20:55:29.060Z,95.20
2022-09-06T20:57:58.515Z,95.40
2022-09-06T21:00:29.254Z,95.40
2022-09-06T21:02:57.990Z,95.60
2022-09-06T21:05:28.308Z,95.50
2022-09-06T21:07:58.056Z,95.50
2022-09-06T21:10:29.317Z,95.60
2022-09-06T21:13:02.897Z,95.60
2022-09-06T21:15:36.563Z,95.80
2022-09-06T21:18:08.035Z,95.80
2022-09-06T21:20:39.630Z,96.00
2022-09-06T21:23:11.478Z,96.10
2022-09-06T21:25:42.848Z,96.10
2022-09-06T21:28:13.230Z,96.40
2022-09-06T21:30:44.411Z,96.60
2022-09-06T21:33:16.727Z,96.80
2022-09-06T21:35:49.510Z,97.10
2022-09-06T21:38:22.193Z,97.20
2022-09-06T21:40:51.118Z,97.20
2022-09-06T21:43:22.667Z,97.40
2022-09-06T21:45:52.170Z,97.20
2022-09-06T21:48:22.307Z,97.00
2022-09-06T21:50:50.850Z,97.20
2022-09-06T21:53:24.963Z,97.10
2022-09-06T21:56:06.525Z,97.30
2022-09-06T21:58:36.533Z,97.50
2022-09-06T22:01:05.282Z,97.70
2022-09-06T22:03:43.025Z,97.70
2022-09-06T22:06:23.670Z,97.80
2022-09-06T22:08:54.713Z,97.90
2022-09-06T22:11:34.152Z,98.00
2022-09-06T22:14:05.469Z,98.10
2022-09-06T22:16:42.000Z,97.80
2022-09-06T22:19:12.120Z,98.00
2022-09-06T22:21:40.163Z,98.10
2022-09-06T22:24:13.249Z,98.00
2022-09-06T22:26:45.592Z,98.40
2022-09-06T22:29:20.454Z,98.30
2022-09-06T22:31:50.426Z,98.40
2022-09-06T22:34:20.272Z,98.50
2022-09-06T22:36:49.737Z,98.50
2022-09-06T22:39:19.315Z,98.50
2022-09-06T22:41:50.569Z,98.50
2022-09-06T22:44:19.429Z,98.50
2022-09-06T22:46:49.796Z,98.50
2022-09-06T22:49:20.223Z,98.60
2022-09-06T22:51:50.738Z,98.60
2022-09-06T22:54:22.577Z,98.70
2022-09-06T22:56:54.486Z,98.70
2022-09-06T22:59:21.996Z,98.50
2022-09-06T23:01:53.902Z,98.70
2022-09-06T23:04:23.452Z,98.50
2022-09-06T23:06:51.271Z,98.90
2022-09-06T23:09:25.371Z,99.10
2022-09-06T23:11:59.473Z,99.10
2022-09-06T23:14:33.023Z,99.00
2022-09-06T23:17:04.808Z,99.20
2022-09-06T23:19:32.315Z,99.10
2022-09-06T23:24:45.136Z,99.80
2022-09-06T23:27:13.140Z,99.80
2022-09-06T23:29:47.039Z,99.70
2022-09-06T23:32:17.490Z,99.80
2022-09-06T23:34:45.037Z,99.80
2022-09-06T23:37:14.730Z,99.80
2022-09-06T23:39:42.025Z,99.90
2022-09-06T23:42:12.536Z,99.90
2022-09-06T23:44:41.360Z,99.90
2022-09-06T23:47:09.076Z,99.90
2022-09-06T23:49:37.129Z,99.90
2022-09-06T23:52:07.327Z,99.90
2022-09-06T23:54:39.417Z,99.90
2022-09-06T23:57:12.458Z,99.90
2022-09-06T23:59:43.435Z,99.90
